Honey Creek, Missouri
Current Conditions -  °F | °C
As of 1:53 PM on Monday 24 Nov 2014 (Local Time) from KJEF Reporting Station
Overcast Overcast  
Wind Chill: 33°   Ceiling: 4400
Heat Index: 41°   Visibility: 10mi
Dew Point: 25°   Wind: 15mph
Humidity: 53%   Direction: 270°W
Pressure: 29.78"   Gusts: NA
Location:  38.5003°N, 92.1516°W
Report Text: KJEF 241953Z 27013KT 10SM OVC044 05/M04 A2978 RMK AO2 SLP078 T00501039
Loading
Personal Weather Stations






























Interactive Weather Map New forecast layout! Learn more

10-Day Weather Forecast

Advertisements
Track Severe Weather on mobile